Time;durP1;ratioP1;P1;durP2;ratioP2;P2;SDS_P1;SDS_P2;PMS_P1;PMS_P2;Temp;Humidity;BMP_temperature;BMP_pressure;BME280_temperature;BME280_humidity;BME280_pressure;Samples;Min_cycle;Max_cycle;Signal;HPM_P1;HPM_P2
2023/09/17 00:01:46;;;;;;;1.70;1.60;;;;;;;22.77;53.20;93408.88;4849762;29;20055;-92
2023/09/17 00:04:12;;;;;;;1.92;1.27;;;;;;;22.78;53.07;93417.88;4852574;29;20045;-93
2023/09/17 00:06:42;;;;;;;1.58;1.33;;;;;;;22.77;53.25;93417.13;4841978;29;20116;-94
2023/09/17 00:09:13;;;;;;;1.50;1.40;;;;;;;22.77;53.21;93410.84;4825643;29;20649;-93
2023/09/17 00:11:45;;;;;;;1.80;1.40;;;;;;;22.76;53.11;93409.38;4850497;29;20045;-94
2023/09/17 00:14:10;;;;;;;1.63;1.10;;;;;;;22.77;52.83;93402.59;4834589;29;20065;-94
2023/09/17 00:16:41;;;;;;;2.85;1.35;;;;;;;22.77;52.97;93402.59;4840972;29;20136;-93
2023/09/17 00:19:06;;;;;;;2.30;1.55;;;;;;;22.76;53.03;93401.09;4835396;29;20274;-94
2023/09/17 00:21:32;;;;;;;1.02;0.90;;;;;;;22.75;53.24;93394.13;4834144;29;20097;-94
2023/09/17 00:24:00;;;;;;;1.80;1.52;;;;;;;22.76;52.89;93401.09;4851293;29;20126;-93
2023/09/17 00:26:29;;;;;;;1.40;1.30;;;;;;;22.75;53.21;93399.63;4854107;29;20086;-93
2023/09/17 00:28:55;;;;;;;1.40;1.20;;;;;;;22.74;53.16;93409.91;4849374;29;20128;-93
2023/09/17 00:31:20;;;;;;;1.58;1.30;;;;;;;22.76;53.20;93409.38;4843269;29;20073;-93
2023/09/17 00:33:49;;;;;;;1.77;1.50;;;;;;;22.75;52.85;93405.88;4835558;29;20557;-94
2023/09/17 00:36:15;;;;;;;1.50;1.40;;;;;;;22.74;53.02;93407.16;4853983;29;20037;-93
2023/09/17 00:38:43;;;;;;;1.88;1.73;;;;;;;22.74;53.23;93409.91;4842605;29;20045;-93
2023/09/17 00:41:09;;;;;;;1.40;1.30;;;;;;;22.74;53.29;93396.13;4841343;29;20059;-94
2023/09/17 00:43:39;;;;;;;1.13;1.02;;;;;;;22.73;53.08;93402.94;4849754;29;20033;-94
2023/09/17 00:46:05;;;;;;;1.70;1.27;;;;;;;22.73;53.15;93397.44;4847763;29;20045;-94
2023/09/17 00:48:33;;;;;;;1.50;1.38;;;;;;;22.74;53.03;93398.88;4857711;29;20150;-94
2023/09/17 00:50:59;;;;;;;1.55;1.30;;;;;;;22.73;53.15;93391.94;4856527;29;20045;-94
2023/09/17 00:53:25;;;;;;;1.42;1.30;;;;;;;22.72;53.14;93389.72;4847606;29;20041;-93
2023/09/17 00:55:54;;;;;;;1.23;1.13;;;;;;;22.72;53.30;93393.19;4832484;29;20060;-93
2023/09/17 00:58:27;;;;;;;1.48;1.38;;;;;;;22.72;53.07;93393.19;4831230;29;20067;-94
2023/09/17 01:00:53;;;;;;;1.67;1.20;;;;;;;22.73;52.99;93396.69;4837802;29;20048;-94
2023/09/17 01:03:21;;;;;;;1.92;1.60;;;;;;;22.73;52.93;93393.94;4807053;29;20042;-93
2023/09/17 01:05:47;;;;;;;2.30;1.70;;;;;;;22.72;53.00;93397.97;4796894;29;20046;-94
2023/09/17 01:08:14;;;;;;;1.60;1.50;;;;;;;22.73;53.02;93393.94;4794734;29;20061;-94
2023/09/17 01:10:43;;;;;;;1.50;1.40;;;;;;;22.72;53.13;93389.72;4801121;29;20049;-92
2023/09/17 01:13:14;;;;;;;1.92;1.73;;;;;;;22.72;53.07;93395.97;4800977;29;20057;-94
2023/09/17 01:15:39;;;;;;;;;;;;;;;22.74;53.09;93389.88;4815139;29;20141;-94
2023/09/17 01:18:21;;;;;;;1.48;1.38;;;;;;;22.70;53.07;93384.72;4811889;29;20392;-93
2023/09/17 01:21:01;;;;;;;1.52;1.42;;;;;;;22.69;53.22;93380.50;4809585;29;20426;-94
2023/09/17 01:23:36;;;;;;;1.50;1.40;;;;;;;22.69;53.00;93388.75;4806165;29;20050;-93
2023/09/17 01:26:15;;;;;;;1.60;1.30;;;;;;;22.69;52.96;93386.00;4811559;29;20053;-93
2023/09/17 01:28:42;;;;;;;1.92;1.73;;;;;;;22.68;52.94;93387.28;4793846;29;20064;-93
2023/09/17 01:31:11;;;;;;;1.60;1.30;;;;;;;22.68;53.10;93384.53;4799410;29;20158;-94
2023/09/17 01:33:36;;;;;;;1.30;1.17;;;;;;;22.68;52.95;93387.28;4801077;29;20045;-93
2023/09/17 01:36:25;;;;;;;2.05;1.55;;;;;;;22.69;53.09;93391.53;4827163;29;20052;-93
2023/09/17 01:38:52;;;;;;;2.03;1.60;;;;;;;22.70;52.98;93392.25;4829157;29;20049;-93
2023/09/17 01:41:25;;;;;;;1.27;1.15;;;;;;;22.69;53.00;93386.00;4825582;29;20126;-93
2023/09/17 01:43:59;;;;;;;1.58;1.45;;;;;;;22.68;53.02;93392.06;4812116;29;20053;-94
2023/09/17 01:46:27;;;;;;;2.13;1.70;;;;;;;22.69;53.14;93385.28;4824628;29;20055;-94
2023/09/17 01:48:53;;;;;;;1.50;1.40;;;;;;;22.68;53.01;93390.03;4819022;29;20042;-95
2023/09/17 01:51:36;;;;;;;3.28;1.60;;;;;;;22.68;53.06;93389.31;4837409;29;20093;-94
2023/09/17 01:54:03;;;;;;;1.45;1.35;;;;;;;22.67;52.89;93383.06;4826209;29;20532;-92
2023/09/17 01:56:41;;;;;;;1.60;1.50;;;;;;;22.68;53.12;93373.50;4839832;29;20284;-94
2023/09/17 01:59:07;;;;;;;2.03;1.50;;;;;;;22.68;52.78;93379.03;4803369;29;20638;-93
2023/09/17 02:01:37;;;;;;;1.52;1.38;;;;;;;22.68;53.03;93378.28;4825634;29;20049;-93
2023/09/17 02:04:05;;;;;;;2.00;1.58;;;;;;;22.69;52.81;93382.50;4810638;29;20073;-94
2023/09/17 02:06:31;;;;;;;1.48;1.20;;;;;;;22.67;53.16;93391.31;4844368;29;20045;-93
2023/09/17 02:08:58;;;;;;;1.50;1.40;;;;;;;22.67;52.97;93396.09;4837803;29;20056;-94
2023/09/17 02:11:24;;;;;;;1.35;1.23;;;;;;;22.67;53.00;93393.34;4826543;29;20044;-93
2023/09/17 02:13:52;;;;;;;1.48;1.38;;;;;;;22.66;52.97;93389.84;4835117;29;20045;-93
2023/09/17 02:16:17;;;;;;;1.58;1.40;;;;;;;22.66;52.77;93394.63;4811745;29;20057;-93
2023/09/17 02:18:46;;;;;;;2.03;1.48;;;;;;;22.67;52.83;93393.34;4813287;29;20041;-92
2023/09/17 02:21:14;;;;;;;2.08;1.70;;;;;;;22.66;52.82;93389.09;4829058;29;20057;-94
2023/09/17 02:23:44;;;;;;;1.75;1.55;;;;;;;22.66;52.88;93389.84;4830938;29;20049;-92
2023/09/17 02:26:14;;;;;;;1.75;1.65;;;;;;;22.67;52.79;93390.56;4839219;29;20116;-95
2023/09/17 02:28:40;;;;;;;1.95;1.58;;;;;;;22.66;52.92;93394.63;4842449;29;20522;-94
2023/09/17 02:31:06;;;;;;;1.60;1.45;;;;;;;22.66;52.99;93394.63;4849116;29;20064;-92
2023/09/17 02:33:34;;;;;;;1.70;1.42;;;;;;;22.65;52.84;93396.63;4863067;29;20124;-93
2023/09/17 02:36:03;;;;;;;1.83;1.60;;;;;;;22.65;52.89;93395.88;4841757;29;20139;-93
2023/09/17 02:38:31;;;;;;;1.58;1.35;;;;;;;22.64;52.80;93402.69;4823718;29;20152;-93
2023/09/17 02:40:56;;;;;;;1.35;1.20;;;;;;;22.65;52.86;93395.88;4831169;29;20051;-93
2023/09/17 02:43:29;;;;;;;1.83;1.42;;;;;;;22.64;52.97;93400.66;4823270;29;20104;-92
2023/09/17 02:46:04;;;;;;;1.35;1.20;;;;;;;22.64;52.85;93395.16;4847377;29;20041;-92
2023/09/17 02:48:34;;;;;;;1.73;1.50;;;;;;;22.64;52.55;93394.41;4847830;29;20128;-93
2023/09/17 02:51:01;;;;;;;1.55;1.38;;;;;;;22.64;52.91;93397.16;4831371;29;20587;-94
2023/09/17 02:53:40;;;;;;;1.35;1.25;;;;;;;22.62;53.06;93394.94;4844639;29;20040;-92
2023/09/17 02:56:08;;;;;;;1.88;1.33;;;;;;;22.62;52.87;93396.97;4820362;29;20064;-93
2023/09/17 02:58:35;;;;;;;1.30;1.15;;;;;;;22.62;53.01;93397.69;4848437;29;20556;-94
2023/09/17 03:01:23;;;;;;;1.20;1.10;;;;;;;22.62;52.87;93391.44;4847122;29;20056;-93
2023/09/17 03:03:48;;;;;;;1.65;1.55;;;;;;;22.63;52.83;93395.69;4836735;29;20099;-93
2023/09/17 03:06:14;;;;;;;1.40;1.27;;;;;;;22.61;52.88;93382.44;4849445;29;20044;-93
2023/09/17 03:08:48;;;;;;;1.50;1.40;;;;;;;22.62;52.69;93392.19;4848117;29;20405;-92
2023/09/17 03:11:16;;;;;;;1.98;1.63;;;;;;;22.62;52.83;93385.94;4848064;29;20642;-95
2023/09/17 03:13:44;;;;;;;1.23;1.13;;;;;;;22.61;52.75;93389.97;4841210;29;20052;-94
2023/09/17 03:16:19;;;;;;;1.42;1.33;;;;;;;22.61;53.12;93396.22;4818625;29;20060;-93
2023/09/17 03:18:45;;;;;;;2.00;1.60;;;;;;;22.61;52.82;93390.72;4862306;29;20043;-91
2023/09/17 03:21:14;;;;;;;1.50;1.40;;;;;;;22.62;52.74;93397.69;4835999;29;20241;-91
2023/09/17 03:23:39;;;;;;;1.92;1.73;;;;;;;22.60;52.87;93396.75;4840952;29;20052;-92
2023/09/17 03:26:12;;;;;;;1.20;1.05;;;;;;;22.60;52.68;93397.50;4838148;29;20216;-91
2023/09/17 03:28:40;;;;;;;1.15;1.05;;;;;;;22.60;53.08;93392.00;4840338;29;20056;-91
2023/09/17 03:31:08;;;;;;;2.42;1.83;;;;;;;22.62;52.74;93399.72;4803982;29;20053;-93
2023/09/17 03:33:38;;;;;;;1.63;1.48;;;;;;;22.60;52.79;93405.75;4776550;29;20084;-91
2023/09/17 03:36:06;;;;;;;1.90;1.40;;;;;;;22.61;52.82;93404.50;4791794;29;20464;-90
2023/09/17 03:38:34;;;;;;;1.67;1.50;;;;;;;22.62;52.75;93405.97;4781583;29;20050;-92
2023/09/17 03:41:00;;;;;;;1.63;1.33;;;;;;;22.61;52.67;93403.75;4794208;29;20042;-91
2023/09/17 03:43:33;;;;;;;1.50;1.40;;;;;;;22.61;52.57;93404.50;4788203;29;20130;-92
2023/09/17 03:46:02;;;;;;;1.98;1.50;;;;;;;22.59;52.72;93415.31;4771116;29;20038;-91
2023/09/17 03:48:31;;;;;;;1.75;1.52;;;;;;;22.59;52.69;93407.03;4791538;29;20042;-91
2023/09/17 03:50:58;;;;;;;1.50;1.40;;;;;;;22.60;52.59;93405.03;4789003;29;20050;-92
2023/09/17 03:53:26;;;;;;;1.67;1.55;;;;;;;22.59;52.77;93407.03;4790880;29;20047;-91
2023/09/17 03:55:53;;;;;;;1.95;1.65;;;;;;;22.58;52.52;93408.31;4784329;29;20046;-90
2023/09/17 03:58:29;;;;;;;1.70;1.55;;;;;;;22.58;52.52;93411.06;4797997;29;20046;-91
2023/09/17 04:00:58;;;;;;;1.70;1.42;;;;;;;22.58;52.68;93406.31;4819070;29;20054;-90
2023/09/17 04:03:26;;;;;;;1.80;1.50;;;;;;;22.57;52.58;93415.09;4834784;29;20049;-92
2023/09/17 04:05:54;;;;;;;1.55;1.30;;;;;;;22.57;52.42;93412.34;4827513;29;20045;-90
2023/09/17 04:08:21;;;;;;;1.90;1.67;;;;;;;22.56;52.52;93408.13;4862083;29;20038;-91
2023/09/17 04:10:49;;;;;;;1.40;1.30;;;;;;;22.56;52.57;93414.38;4841649;29;20041;-92
2023/09/17 04:13:19;;;;;;;1.63;1.52;;;;;;;22.57;52.50;93415.84;4865778;29;20051;-91
2023/09/17 04:15:48;;;;;;;1.40;1.30;;;;;;;22.57;52.52;93423.38;4837802;29;20045;-92
2023/09/17 04:18:19;;;;;;;1.45;1.30;;;;;;;22.57;52.59;93426.88;4812139;29;20109;-92
2023/09/17 04:20:47;;;;;;;1.70;1.48;;;;;;;22.56;52.69;93430.91;4847333;29;20046;-93
2023/09/17 04:23:15;;;;;;;2.85;1.88;;;;;;;22.55;52.48;93432.16;4825819;29;20053;-91
2023/09/17 04:25:41;;;;;;;2.03;1.40;;;;;;;22.57;52.57;93437.16;4847607;29;20045;-91
2023/09/17 04:28:12;;;;;;;1.58;1.27;;;;;;;22.56;52.50;93439.16;4854943;29;20492;-91
2023/09/17 04:30:38;;;;;;;1.50;1.40;;;;;;;22.57;52.70;93437.88;4828169;29;20045;-92
2023/09/17 04:33:07;;;;;;;1.60;1.50;;;;;;;22.56;52.39;93436.41;4833372;29;20064;-89
2023/09/17 04:35:35;;;;;;;1.73;1.42;;;;;;;22.55;52.59;93443.19;4844670;29;20051;-91
2023/09/17 04:38:09;;;;;;;1.63;1.52;;;;;;;22.57;52.45;93445.41;4849277;29;20059;-92
2023/09/17 04:40:35;;;;;;;1.98;1.58;;;;;;;22.57;52.46;93445.41;4853988;29;20053;-91
2023/09/17 04:43:03;;;;;;;1.67;1.40;;;;;;;22.57;52.57;93445.41;4844168;29;20068;-91
2023/09/17 04:45:35;;;;;;;1.55;1.45;;;;;;;22.56;52.52;93449.44;4829189;29;20061;-92
2023/09/17 04:48:11;;;;;;;1.52;1.38;;;;;;;22.56;52.45;93454.94;4844192;29;20040;-91
2023/09/17 04:50:46;;;;;;;;;;;;;;;;;;;;;
2023/09/17 04:53:12;;;;;;;2.13;1.42;;;;;;;22.55;52.63;93458.97;4801896;29;20064;-91
2023/09/17 04:55:38;;;;;;;1.73;1.50;;;;;;;22.53;52.39;93456.75;4834618;29;20041;-91
2023/09/17 04:58:04;;;;;;;1.75;1.35;;;;;;;22.53;52.68;93469.78;4843521;29;20132;-92
2023/09/17 05:00:29;;;;;;;1.48;1.38;;;;;;;22.54;52.28;93463.00;4861771;29;20037;-92
2023/09/17 05:03:00;;;;;;;1.38;1.23;;;;;;;22.54;52.65;93465.75;4845993;29;20060;-91
2023/09/17 05:05:26;;;;;;;;;;;;;;;22.58;52.55;93477.94;4847329;29;20041;-90
2023/09/17 05:07:55;;;;;;;1.88;1.40;;;;;;;22.56;52.53;93465.97;4877002;29;20366;-91
2023/09/17 05:10:22;;;;;;;1.42;1.33;;;;;;;22.56;52.35;93471.47;4834235;29;20052;-92
2023/09/17 05:12:51;;;;;;;1.58;1.40;;;;;;;22.56;52.63;93477.00;4830267;29;20041;-91
2023/09/17 05:15:19;;;;;;;1.42;1.25;;;;;;;22.57;52.50;93486.75;4828183;29;20053;-91
2023/09/17 05:17:45;;;;;;;1.38;1.25;;;;;;;22.56;52.58;93486.00;4839181;29;20111;-91
2023/09/17 05:20:14;;;;;;;1.50;1.40;;;;;;;22.57;52.43;93484.72;4847835;29;20044;-92
2023/09/17 05:22:43;;;;;;;2.33;1.30;;;;;;;22.59;52.37;93484.19;4836253;29;20045;-92
2023/09/17 05:25:12;;;;;;;1.30;1.20;;;;;;;22.61;52.64;93486.41;4831932;29;20064;-91
2023/09/17 05:27:40;;;;;;;1.50;1.40;;;;;;;22.61;52.51;93489.91;4834887;29;20132;-89
2023/09/17 05:30:07;;;;;;;1.92;1.40;;;;;;;22.63;52.47;93492.13;4839855;29;20049;-91
2023/09/17 05:32:43;;;;;;;1.45;1.30;;;;;;;22.65;52.46;93492.34;4838215;29;20044;-90
2023/09/17 05:35:08;;;;;;;1.38;1.27;;;;;;;22.67;52.16;93485.00;4837398;29;20045;-93
2023/09/17 05:37:34;;;;;;;1.52;1.13;;;;;;;22.68;52.26;93492.00;4851922;29;20124;-91
2023/09/17 05:39:59;;;;;;;1.35;1.10;;;;;;;22.67;52.23;93496.03;4824421;29;20049;-91
2023/09/17 05:42:31;;;;;;;1.23;1.10;;;;;;;22.68;52.52;93496.78;4826684;29;20145;-91
2023/09/17 05:44:57;;;;;;;1.30;1.20;;;;;;;22.70;52.18;93499.72;4845317;29;20528;-91
2023/09/17 05:47:24;;;;;;;1.15;1.05;;;;;;;22.71;52.13;93490.19;4845662;29;20049;-92
2023/09/17 05:49:55;;;;;;;1.90;1.50;;;;;;;22.73;51.83;93499.41;4833032;29;20077;-91
2023/09/17 05:52:35;;;;;;;;;;;;;;;;;;;;;
2023/09/17 05:55:04;;;;;;;1.55;1.30;;;;;;;22.77;51.76;93499.81;4807294;29;20052;-92
2023/09/17 05:57:30;;;;;;;1.30;1.20;;;;;;;22.79;52.03;93502.03;4826819;29;20053;-92
2023/09/17 05:59:59;;;;;;;1.55;1.45;;;;;;;22.78;51.90;93493.03;4851817;29;20040;-92
2023/09/17 06:02:33;;;;;;;1.55;1.30;;;;;;;22.81;51.63;93493.97;4833760;29;20050;-91
2023/09/17 06:05:00;;;;;;;1.27;1.17;;;;;;;22.81;51.73;93493.97;4839519;29;20045;-92
2023/09/17 06:07:28;;;;;;;1.15;1.05;;;;;;;22.82;51.63;93496.19;4826438;29;20045;-92
2023/09/17 06:09:59;;;;;;;1.77;1.35;;;;;;;22.84;51.71;93507.41;4846812;29;20358;-91
2023/09/17 06:12:27;;;;;;;1.33;1.23;;;;;;;22.85;51.79;93503.38;4840923;29;20045;-91
2023/09/17 06:14:53;;;;;;;1.25;1.15;;;;;;;22.88;51.84;93501.56;4829769;29;20124;-92
2023/09/17 06:17:35;;;;;;;1.42;1.20;;;;;;;22.88;51.62;93487.78;4842481;29;20049;-90
2023/09/17 06:20:10;;;;;;;1.30;1.10;;;;;;;22.90;51.70;93497.00;4831129;29;20041;-92
2023/09/17 06:22:35;;;;;;;1.40;1.30;;;;;;;22.93;51.57;93499.97;4846426;29;20176;-93
2023/09/17 06:25:04;;;;;;;1.17;1.08;;;;;;;22.94;51.54;93504.94;4833238;29;20124;-92
2023/09/17 06:27:34;;;;;;;1.73;1.30;;;;;;;22.96;51.54;93502.38;4832148;29;20049;-91
2023/09/17 06:30:03;;;;;;;1.35;1.15;;;;;;;22.96;51.67;93498.88;4847369;29;20480;-91
2023/09/17 06:32:32;;;;;;;1.27;1.17;;;;;;;22.97;51.45;93501.09;4834010;29;20496;-90
2023/09/17 06:34:58;;;;;;;1.25;1.00;;;;;;;23.00;51.67;93508.28;4847835;29;20053;-91
2023/09/17 06:37:24;;;;;;;1.40;1.20;;;;;;;23.01;51.57;93507.00;4839384;29;20052;-92
2023/09/17 06:39:52;;;;;;;1.25;1.15;;;;;;;23.03;51.57;93507.22;4835935;29;20044;-91
2023/09/17 06:42:19;;;;;;;1.20;1.10;;;;;;;23.06;51.43;93510.91;4843771;29;20493;-90
2023/09/17 06:44:47;;;;;;;1.08;0.98;;;;;;;23.06;51.28;93521.94;4825072;29;20058;-92
2023/09/17 06:47:16;;;;;;;1.27;1.10;;;;;;;23.07;51.36;93510.38;4842934;29;20053;-92
2023/09/17 06:49:55;;;;;;;1.23;1.13;;;;;;;23.11;51.59;93515.56;4831029;29;20064;-93
2023/09/17 06:52:27;;;;;;;1.23;1.13;;;;;;;23.13;51.49;93510.25;4829890;29;20038;-92
2023/09/17 06:54:57;;;;;;;1.38;1.15;;;;;;;23.13;51.41;93515.75;4833363;29;20132;-91
2023/09/17 06:57:22;;;;;;;;;;;;;;;23.13;51.35;93516.50;4835385;29;20153;-93
2023/09/17 06:59:52;;;;;;;1.67;1.15;;;;;;;23.15;51.22;93519.47;4852924;29;19969;-91
2023/09/17 07:02:18;;;;;;;1.17;1.00;;;;;;;23.16;51.32;93515.44;4856254;29;20044;-91
2023/09/17 07:04:51;;;;;;;1.35;1.20;;;;;;;23.17;51.30;93519.63;4843886;29;20429;-91
2023/09/17 07:07:17;;;;;;;1.30;1.20;;;;;;;23.21;51.34;93519.31;4827235;29;20439;-92
2023/09/17 07:09:47;;;;;;;1.80;1.30;;;;;;;23.19;51.17;93521.84;4836400;29;20236;-91
2023/09/17 07:12:16;;;;;;;1.23;1.13;;;;;;;23.23;51.30;93519.50;4839475;29;20123;-92
2023/09/17 07:14:46;;;;;;;1.77;1.35;;;;;;;23.26;51.27;93521.19;4845452;29;20126;-92
2023/09/17 07:17:12;;;;;;;1.25;1.15;;;;;;;23.28;51.34;93529.66;4826718;29;20046;-91
2023/09/17 07:19:41;;;;;;;1.10;1.00;;;;;;;23.30;51.14;93538.13;4834049;29;20495;-91
2023/09/17 07:22:14;;;;;;;1.30;1.17;;;;;;;23.32;51.05;93532.81;4844780;29;20295;-92
2023/09/17 07:24:47;;;;;;;1.55;1.23;;;;;;;23.32;51.02;93543.13;4830845;29;20045;-92
2023/09/17 07:27:15;;;;;;;1.52;1.42;;;;;;;23.36;51.17;93538.00;4842026;29;20048;-92
2023/09/17 07:29:42;;;;;;;1.27;1.17;;;;;;;23.36;51.08;93541.50;4827428;29;20046;-92
2023/09/17 07:32:12;;;;;;;1.20;1.10;;;;;;;23.35;50.96;93540.03;4821323;29;20125;-92
2023/09/17 07:34:39;;;;;;;1.30;1.00;;;;;;;23.36;51.00;93535.97;4840197;29;20061;-92
2023/09/17 07:37:11;;;;;;;1.30;1.10;;;;;;;23.36;50.91;93530.47;4823593;29;20057;-91
2023/09/17 07:39:39;;;;;;;1.52;1.27;;;;;;;23.38;51.01;93535.44;4855028;29;20048;-92
2023/09/17 07:42:06;;;;;;;1.23;1.10;;;;;;;23.39;51.01;93532.13;4853653;29;20560;-93
2023/09/17 07:44:34;;;;;;;1.10;1.00;;;;;;;23.43;51.02;93534.53;4818731;29;20040;-91
2023/09/17 07:47:03;;;;;;;1.58;1.27;;;;;;;23.40;51.01;93546.66;4856841;29;20045;-91
2023/09/17 07:49:29;;;;;;;1.23;1.10;;;;;;;23.41;51.00;93542.63;4839388;29;20093;-91
2023/09/17 07:51:56;;;;;;;1.25;1.00;;;;;;;23.41;50.88;93548.13;4835288;29;20038;-91
2023/09/17 07:54:22;;;;;;;1.48;1.20;;;;;;;23.43;51.23;93548.34;4843682;29;20088;-93
2023/09/17 07:56:56;;;;;;;1.50;0.95;;;;;;;23.43;50.79;93549.06;4844754;29;20045;-91
2023/09/17 07:59:26;;;;;;;1.05;0.95;;;;;;;23.45;50.91;93556.81;4828249;29;20605;-95
2023/09/17 08:01:54;;;;;;;1.30;1.08;;;;;;;23.44;50.86;93544.28;4855359;29;20049;-94
2023/09/17 08:04:20;;;;;;;1.40;1.30;;;;;;;23.45;50.99;93546.53;4829960;29;20046;-95
2023/09/17 08:06:46;;;;;;;1.05;0.95;;;;;;;23.47;50.98;93546.72;4832769;29;20033;-93
2023/09/17 08:09:12;;;;;;;1.27;1.10;;;;;;;23.45;51.01;93543.75;4824406;29;20094;-93
2023/09/17 08:11:39;;;;;;;1.50;1.40;;;;;;;23.45;50.99;93543.03;4828282;29;20053;-93
2023/09/17 08:14:04;;;;;;;1.10;1.08;;;;;;;23.47;51.03;93545.97;4837389;29;20409;-93
2023/09/17 08:16:31;;;;;;;1.65;1.30;;;;;;;23.48;51.07;93547.47;4834385;29;20545;-95
2023/09/17 08:18:58;;;;;;;1.20;1.10;;;;;;;23.46;51.18;93559.03;4849551;29;20049;-93
2023/09/17 08:21:24;;;;;;;1.05;0.95;;;;;;;23.47;51.03;93557.03;4834362;29;20045;-94
2023/09/17 08:23:49;;;;;;;1.25;1.10;;;;;;;23.49;51.11;93557.22;4836316;29;20044;-94
2023/09/17 08:26:15;;;;;;;1.20;1.10;;;;;;;23.51;51.14;93563.69;4827764;29;20041;-94
2023/09/17 08:28:43;;;;;;;0.90;0.80;;;;;;;23.49;50.99;93568.25;4825748;29;20051;-94
2023/09/17 08:31:09;;;;;;;1.45;1.17;;;;;;;23.46;51.22;93564.56;4830996;29;20042;-94
2023/09/17 08:33:35;;;;;;;1.38;1.27;;;;;;;23.47;51.27;93573.56;4828652;29;20049;-94
2023/09/17 08:36:05;;;;;;;0.95;0.93;;;;;;;23.47;51.12;93579.81;4833356;29;20045;-93
2023/09/17 08:38:30;;;;;;;1.15;1.05;;;;;;;23.49;51.15;93576.53;4829089;29;20053;-94
2023/09/17 08:40:58;;;;;;;1.50;1.20;;;;;;;23.48;51.52;93584.06;4859924;29;20041;-95
2023/09/17 08:43:31;;;;;;;1.40;1.27;;;;;;;23.48;51.27;93575.06;4838122;29;20037;-95
2023/09/17 08:46:04;;;;;;;1.10;1.00;;;;;;;23.48;51.32;93569.53;4835972;29;20054;-95
2023/09/17 08:48:33;;;;;;;1.05;0.95;;;;;;;23.45;51.42;93565.84;4839506;29;20287;-95
2023/09/17 08:50:58;;;;;;;1.48;1.25;;;;;;;23.43;51.33;93557.34;4838458;29;20045;-95
2023/09/17 08:53:30;;;;;;;1.80;1.42;;;;;;;23.43;51.34;93559.38;4820919;29;20421;-95
2023/09/17 08:55:59;;;;;;;1.42;1.10;;;;;;;23.43;51.42;93560.13;4822613;29;20125;-94
2023/09/17 08:58:38;;;;;;;0.98;0.88;;;;;;;23.43;51.36;93567.66;4838462;29;20064;-93
2023/09/17 09:01:11;;;;;;;1.27;1.10;;;;;;;23.44;51.31;93558.09;4841025;29;20037;-94
2023/09/17 09:03:43;;;;;;;1.58;1.30;;;;;;;23.42;51.42;93569.66;4851314;29;20048;-95
2023/09/17 09:06:11;;;;;;;1.10;1.00;;;;;;;23.43;51.49;93570.41;4842113;29;20053;-94
2023/09/17 09:08:39;;;;;;;1.20;1.10;;;;;;;23.43;51.33;93570.41;4821931;29;20125;-95
2023/09/17 09:11:06;;;;;;;1.20;1.10;;;;;;;23.43;51.46;93564.88;4847121;29;20078;-94
2023/09/17 09:13:31;;;;;;;1.23;1.13;;;;;;;23.43;51.43;93560.13;4853033;29;20063;-94
2023/09/17 09:16:03;;;;;;;1.33;1.17;;;;;;;23.40;51.60;93554.94;4847106;29;20041;-95
2023/09/17 09:18:29;;;;;;;1.67;1.42;;;;;;;23.41;51.51;93553.66;4843491;29;20464;-92
2023/09/17 09:20:58;;;;;;;1.40;1.23;;;;;;;23.41;51.55;93553.66;4847415;29;20045;-92
2023/09/17 09:23:25;;;;;;;1.42;1.30;;;;;;;23.38;51.65;93549.97;4833946;29;20042;-92
2023/09/17 09:25:53;;;;;;;1.25;1.15;;;;;;;23.41;51.58;93559.16;4835044;29;20049;-93
2023/09/17 09:28:19;;;;;;;1.15;1.05;;;;;;;23.40;51.62;93557.69;4839031;29;20041;-93
2023/09/17 09:30:52;;;;;;;1.10;1.00;;;;;;;23.39;51.65;93556.22;4847742;29;20433;-92
2023/09/17 09:33:21;;;;;;;1.70;1.13;;;;;;;23.38;51.65;93554.75;4847569;29;20125;-92
2023/09/17 09:35:46;;;;;;;1.13;0.98;;;;;;;23.40;51.71;93558.44;4837623;29;20042;-92
2023/09/17 09:38:15;;;;;;;1.13;1.02;;;;;;;23.37;51.84;93556.78;4832166;29;20064;-92
2023/09/17 09:40:43;;;;;;;1.20;1.10;;;;;;;23.39;51.83;93562.47;4847849;29;20119;-92
2023/09/17 09:43:34;;;;;;;1.20;1.10;;;;;;;23.38;51.47;93566.53;4844837;29;20055;-91
2023/09/17 09:46:04;;;;;;;1.30;1.20;;;;;;;23.37;51.71;93567.81;4824111;29;20060;-92
2023/09/17 09:48:43;;;;;;;1.75;1.45;;;;;;;23.37;51.96;93567.06;4823462;29;20051;-92
2023/09/17 09:51:11;;;;;;;1.23;1.13;;;;;;;23.36;51.78;93569.09;4833750;29;20568;-91
2023/09/17 09:53:37;;;;;;;1.27;0.98;;;;;;;23.37;51.58;93567.81;4821075;29;20050;-92
2023/09/17 09:56:05;;;;;;;1.17;1.08;;;;;;;23.36;52.03;93560.81;4837909;29;20438;-92
2023/09/17 09:58:31;;;;;;;1.33;1.17;;;;;;;23.38;51.80;93565.78;4821500;29;20132;-93
2023/09/17 10:01:00;;;;;;;2.40;1.10;;;;;;;23.39;51.73;93564.47;4835061;29;20128;-92
2023/09/17 10:03:30;;;;;;;1.13;1.00;;;;;;;23.35;51.91;93555.84;4846955;29;20044;-92
2023/09/17 10:06:06;;;;;;;1.27;1.00;;;;;;;23.37;51.86;93564.31;4835574;29;20038;-91
2023/09/17 10:08:34;;;;;;;1.20;1.10;;;;;;;23.34;51.99;93557.09;4826498;29;20072;-92
2023/09/17 10:11:04;;;;;;;1.63;1.27;;;;;;;23.35;51.99;93559.34;4834143;29;20469;-91
2023/09/17 10:13:33;;;;;;;;;;;;;;;23.38;51.85;93558.25;4825341;29;20045;-93
2023/09/17 10:16:00;;;;;;;1.70;1.33;;;;;;;23.36;52.05;93562.84;4862056;29;19931;-92
2023/09/17 10:18:26;;;;;;;1.45;1.33;;;;;;;23.34;52.00;93552.34;4835625;29;20041;-92
2023/09/17 10:20:54;;;;;;;2.63;1.10;;;;;;;23.36;51.93;93565.59;4839592;29;20064;-91
2023/09/17 10:23:27;;;;;;;1.33;1.05;;;;;;;23.35;51.96;93559.34;4837099;29;20048;-92
2023/09/17 10:25:57;;;;;;;1.23;1.13;;;;;;;23.36;51.99;93560.81;4830121;29;20065;-92
2023/09/17 10:28:23;;;;;;;1.10;1.00;;;;;;;23.36;51.93;93555.28;4834619;29;20048;-91
2023/09/17 10:30:49;;;;;;;1.10;1.00;;;;;;;23.35;51.90;93559.34;4828734;29;20037;-92
2023/09/17 10:33:18;;;;;;;1.30;1.20;;;;;;;23.34;52.00;93552.34;4828915;29;20044;-92
2023/09/17 10:35:43;;;;;;;1.23;1.10;;;;;;;23.34;52.19;93557.84;4837563;29;20076;-92
2023/09/17 10:38:09;;;;;;;0.88;0.88;;;;;;;23.36;51.80;93557.31;4845983;29;20588;-92
2023/09/17 10:40:36;;;;;;;1.88;1.20;;;;;;;23.36;52.15;93554.56;4831509;29;20077;-92
2023/09/17 10:43:04;;;;;;;1.27;1.17;;;;;;;23.37;51.95;93558.78;4829290;29;20045;-92
2023/09/17 10:45:32;;;;;;;1.30;1.10;;;;;;;23.36;52.13;93555.28;4827882;29;20104;-92
2023/09/17 10:48:01;;;;;;;1.10;1.00;;;;;;;23.37;52.03;93569.84;4839380;29;20113;-92
2023/09/17 10:50:29;;;;;;;1.30;1.15;;;;;;;23.36;51.97;93568.34;4844192;29;20053;-92
2023/09/17 10:52:55;;;;;;;1.48;1.25;;;;;;;23.36;52.21;93563.56;4826089;29;20037;-92
2023/09/17 10:55:22;;;;;;;1.58;1.10;;;;;;;23.35;52.24;93559.34;4829583;29;20044;-93
2023/09/17 10:57:49;;;;;;;1.20;1.10;;;;;;;23.35;52.03;93567.59;4848543;29;20046;-91
2023/09/17 11:00:18;;;;;;;1.33;1.00;;;;;;;23.33;52.03;93567.41;4847660;29;20205;-92
2023/09/17 11:02:50;;;;;;;1.30;1.10;;;;;;;23.35;52.00;93562.09;4828769;29;20041;-91
2023/09/17 11:05:22;;;;;;;1.23;1.10;;;;;;;23.33;52.18;93563.91;4842975;29;20281;-93
2023/09/17 11:07:50;;;;;;;1.27;1.00;;;;;;;23.33;52.05;93572.91;4837010;29;20077;-93
2023/09/17 11:10:19;;;;;;;1.23;1.13;;;;;;;23.35;52.13;93558.59;4820700;29;20092;-91
2023/09/17 11:12:54;;;;;;;1.60;1.47;;;;;;;23.34;52.21;93559.88;4828134;29;20075;-91
2023/09/17 11:15:24;;;;;;;1.30;1.15;;;;;;;23.32;52.23;93563.16;4842872;29;20045;-93
2023/09/17 11:17:50;;;;;;;1.30;1.20;;;;;;;23.34;52.23;93563.38;4844758;29;20049;-92
2023/09/17 11:20:18;;;;;;;1.45;1.23;;;;;;;23.35;52.05;93566.88;4819500;29;20041;-93
2023/09/17 11:22:50;;;;;;;1.77;1.27;;;;;;;23.33;52.20;93566.66;4828139;29;20446;-93
2023/09/17 11:25:39;;;;;;;1.27;1.15;;;;;;;23.32;52.24;93570.69;4843730;29;20318;-92
2023/09/17 11:28:11;;;;;;;1.58;1.27;;;;;;;23.31;52.37;93577.50;4819624;29;20037;-91
2023/09/17 11:31:02;;;;;;;1.17;1.08;;;;;;;23.31;52.27;93580.25;4832658;29;20041;-92
2023/09/17 11:33:27;;;;;;;1.20;1.10;;;;;;;23.32;52.24;93571.44;4836681;29;20029;-93
2023/09/17 11:35:59;;;;;;;1.25;1.02;;;;;;;23.30;52.41;93573.25;4818264;29;20037;-93
2023/09/17 11:38:27;;;;;;;1.33;1.23;;;;;;;23.31;52.28;93577.50;4827323;29;20135;-91
2023/09/17 11:41:09;;;;;;;1.52;1.42;;;;;;;23.31;52.33;93578.25;4833297;29;20193;-92
2023/09/17 11:43:36;;;;;;;1.40;1.25;;;;;;;23.32;52.31;93581.75;4857844;29;20408;-92
2023/09/17 11:46:05;;;;;;;1.02;0.88;;;;;;;23.32;52.18;93578.97;4841422;29;20037;-92